罗盘
风向 的 风向 160° Efogi Airport 17/35
风: 15 kt, 4 beaufort

14 kt

2 kt
改变
0 1.000 2.000 3.000 4.000 5.000
SCT 3.000 ft
METAR AYPY 220400Z 16015KT 9999 HZ SCT030 32/25 Q1006=

METAR Efogi Airport

Efogi Airport是Efogi,巴布亚新几内亚中的小机场。 该机场有一条跑道: 17/35.

这份报告是针对2022年5月22日 14:00, 当地时间在傑克遜斯國際機場进行的。

机场观察

风向为160°,速度为15 kt。

可见度为10 km 或者更多。

有疏云,零星散落的云朵在3.000 ft的高度。 没有观察到天花板。

当前天气为阴霾。 温度和风寒是32 °C。 热指数为40。 露点为25 °C,相对湿度为67%。 海平面上的气压为1006 hPa (QNH)。

白天

今天,太阳从06:16升起,在17:55降落。 这适用于Efogi Airport,世界夏令时可能有所不同。 当地时间与世界标准时间之间的时差为+10 小时。 夏令时目前正在进行中。

公司介绍

我们没有关于这个机场的公司信息。

体会

到Vliegles.nl去找飞行课程,跳伞和其他飞行体验。 浏览页面,了解Efogi Airport附近所有可用的活动。 你也可以使用搜索功能来寻找你所在地附近的特定飞行课程、跳伞或其他飞行体验。

您会帮助我们保持Metar-Taf.com正常运行吗?
您的贡献有助于网站的进一步开发并支付费用。

没有更多广告

您是捐款5美元还是更多?然后,我们将永远不会再向您展示广告,这是我们永恒的感谢!
捐赠前先登录

跑道

Id 标题 侧风 逆风
17/35 170°-350° 2 kt 14 kt

逆风成分最大的方向会被突出显示,并用于横风计算。 这并不一定意味着这个方向在使用。

乌云

3.000 ft SCT 疏云,零星散落的云朵

温度 & 天气

天气 阴霾
温度 32 °C
露点 25 °C
相对湿度 67%
热度指数 40 °C
Kp-index 2  

公司介绍

新增公司

下载我们的应用程序

在您的手机和平板电脑上轻松访问所有航空天气。
有许多网站上没有的功能,如离线支持和个人机场列表。

Studio Eveline

Benalmádena
España

我们和第三方通过cookies跟踪您在我们网站上的上网行为。如果您继续,我们认为您同意我们的cookie政策。 了解更多